createdAt,value
2023-03-25T00:00:13.331Z,55.08
2023-03-25T00:02:41.120Z,55.13
2023-03-25T00:05:08.019Z,55.05
2023-03-25T00:07:34.545Z,54.94
2023-03-25T00:10:01.178Z,54.90
2023-03-25T00:12:27.871Z,54.31
2023-03-25T00:14:54.934Z,54.38
2023-03-25T00:17:23.607Z,54.22
2023-03-25T00:19:52.881Z,54.54
2023-03-25T00:22:19.530Z,54.73
2023-03-25T00:24:46.303Z,54.92
2023-03-25T00:27:14.415Z,54.88
2023-03-25T00:29:44.481Z,54.85
2023-03-25T00:32:12.565Z,54.88
2023-03-25T00:34:41.834Z,54.83
2023-03-25T00:37:09.528Z,54.71
2023-03-25T00:39:37.530Z,54.98
2023-03-25T00:42:04.378Z,55.05
2023-03-25T00:44:31.911Z,55.02
2023-03-25T00:46:58.579Z,55.15
2023-03-25T00:49:25.144Z,55.20
2023-03-25T00:51:54.058Z,55.17
2023-03-25T00:54:22.316Z,55.17
2023-03-25T00:56:50.561Z,55.03
2023-03-25T00:59:17.090Z,55.11
2023-03-25T01:01:46.152Z,55.09
2023-03-25T01:04:12.812Z,55.14
2023-03-25T01:06:51.699Z,55.29
2023-03-25T01:09:20.212Z,54.79
2023-03-25T01:11:49.888Z,54.74
2023-03-25T01:14:19.364Z,54.61
2023-03-25T01:16:46.272Z,54.02
2023-03-25T01:19:13.734Z,54.27
2023-03-25T01:21:40.789Z,53.95
2023-03-25T01:24:08.661Z,53.60
2023-03-25T01:26:35.099Z,53.40
2023-03-25T01:29:01.854Z,52.91
2023-03-25T01:31:30.366Z,53.42
2023-03-25T01:33:58.157Z,53.39
2023-03-25T01:36:29.566Z,53.60
2023-03-25T01:38:58.979Z,53.58
2023-03-25T01:41:35.802Z,53.58
2023-03-25T01:44:14.966Z,53.70
2023-03-25T01:46:45.549Z,53.81
2023-03-25T01:49:23.766Z,53.31
2023-03-25T01:51:59.041Z,53.66
2023-03-25T01:54:27.514Z,53.82
2023-03-25T01:56:56.051Z,53.85
2023-03-25T01:59:26.342Z,53.70
2023-03-25T02:01:55.714Z,53.77
2023-03-25T02:04:34.950Z,53.93
2023-03-25T02:07:02.264Z,53.63
2023-03-25T02:09:29.103Z,53.71
2023-03-25T02:11:55.778Z,53.76
2023-03-25T02:14:26.969Z,53.78
2023-03-25T02:16:56.169Z,53.76
2023-03-25T02:19:32.941Z,53.60
2023-03-25T02:22:11.856Z,53.32
2023-03-25T02:25:01.886Z,53.33
2023-03-25T02:27:52.957Z,53.25
2023-03-25T02:30:34.648Z,53.67
2023-03-25T02:33:25.894Z,53.48
2023-03-25T02:36:20.155Z,53.36
2023-03-25T02:38:46.659Z,53.48
2023-03-25T02:41:45.663Z,53.58
2023-03-25T02:44:19.385Z,53.56
2023-03-25T02:46:50.461Z,53.47
2023-03-25T02:49:28.380Z,53.42
2023-03-25T02:52:01.779Z,53.68
2023-03-25T02:54:33.430Z,53.59
2023-03-25T02:57:01.017Z,53.59
2023-03-25T02:59:33.307Z,53.64
2023-03-25T03:02:03.695Z,53.58
2023-03-25T03:04:30.244Z,53.38
2023-03-25T03:06:57.972Z,53.71
2023-03-25T03:09:45.286Z,53.81
2023-03-25T03:12:36.999Z,53.76
2023-03-25T03:15:24.060Z,53.56
2023-03-25T03:18:20.126Z,53.73
2023-03-25T03:20:52.615Z,53.52
2023-03-25T03:23:30.448Z,53.49
2023-03-25T03:26:02.342Z,53.60
2023-03-25T03:28:32.503Z,53.87
2023-03-25T03:31:08.581Z,53.76
2023-03-25T03:33:57.473Z,53.43
2023-03-25T03:36:32.199Z,53.51
2023-03-25T03:39:07.407Z,53.66
2023-03-25T03:41:39.846Z,53.84
2023-03-25T03:44:15.470Z,53.62
2023-03-25T03:46:51.193Z,53.71
2023-03-25T03:49:26.309Z,53.72
2023-03-25T03:52:02.038Z,53.62
2023-03-25T03:54:45.352Z,53.74
2023-03-25T03:57:21.876Z,53.59
2023-03-25T04:00:13.664Z,53.37
2023-03-25T04:02:50.980Z,53.37
2023-03-25T04:05:21.109Z,53.37
2023-03-25T04:07:54.989Z,53.55
2023-03-25T04:10:29.739Z,53.58
2023-03-25T04:13:00.513Z,53.80
2023-03-25T04:15:27.035Z,53.70
2023-03-25T04:17:53.803Z,53.64
2023-03-25T04:20:25.714Z,53.83
2023-03-25T04:22:52.719Z,54.06
2023-03-25T04:25:21.598Z,53.55
2023-03-25T04:27:53.685Z,53.61
2023-03-25T04:30:21.588Z,53.89
2023-03-25T04:32:48.044Z,53.74
2023-03-25T04:35:17.011Z,53.53
2023-03-25T04:37:45.910Z,53.61
2023-03-25T04:40:16.317Z,53.41
2023-03-25T04:42:44.007Z,53.13
2023-03-25T04:45:14.457Z,53.55
2023-03-25T04:47:44.975Z,53.62
2023-03-25T04:50:20.953Z,53.52
2023-03-25T04:52:48.408Z,53.55
2023-03-25T04:55:19.496Z,53.48
2023-03-25T04:57:48.096Z,53.33
2023-03-25T05:00:17.140Z,52.88
2023-03-25T05:02:46.141Z,53.05
2023-03-25T05:05:18.396Z,53.39
2023-03-25T05:07:50.208Z,53.57
2023-03-25T05:10:18.935Z,53.42
2023-03-25T05:12:45.490Z,53.32
2023-03-25T05:15:12.713Z,53.28
2023-03-25T05:17:39.943Z,53.51
2023-03-25T05:20:11.143Z,53.28
2023-03-25T05:22:38.742Z,53.30
2023-03-25T05:25:07.367Z,53.05
2023-03-25T05:27:34.562Z,53.47
2023-03-25T05:30:01.232Z,53.39
2023-03-25T05:32:35.362Z,53.46
2023-03-25T05:35:03.385Z,53.49
2023-03-25T05:37:30.798Z,53.48
2023-03-25T05:39:57.911Z,53.61
2023-03-25T05:42:24.820Z,53.53
2023-03-25T05:44:52.459Z,53.32
2023-03-25T05:47:23.946Z,53.54
2023-03-25T05:49:52.513Z,53.53
2023-03-25T05:52:24.366Z,53.48
2023-03-25T05:54:52.003Z,53.34
2023-03-25T05:57:18.998Z,53.46
2023-03-25T05:59:45.576Z,53.68
2023-03-25T06:02:14.934Z,53.64
2023-03-25T06:04:42.859Z,53.73
2023-03-25T06:07:19.808Z,53.89
2023-03-25T06:09:50.128Z,53.64
2023-03-25T06:12:20.008Z,53.81
2023-03-25T06:14:47.782Z,53.85
2023-03-25T06:17:16.323Z,54.08
2023-03-25T06:19:42.846Z,54.29
2023-03-25T06:22:11.177Z,54.60
2023-03-25T06:24:38.993Z,54.44
2023-03-25T06:27:08.250Z,54.42
2023-03-25T06:29:37.185Z,54.27
2023-03-25T06:32:04.908Z,54.26
2023-03-25T06:34:32.967Z,54.14
2023-03-25T06:37:00.301Z,54.33
2023-03-25T06:39:27.780Z,54.22
2023-03-25T06:41:54.279Z,54.00
2023-03-25T06:44:24.249Z,53.91
2023-03-25T06:46:51.742Z,54.19
2023-03-25T06:49:18.247Z,53.93
2023-03-25T06:51:45.157Z,54.21
2023-03-25T06:54:11.900Z,53.92
2023-03-25T06:56:38.457Z,54.07
2023-03-25T06:59:05.783Z,54.37
2023-03-25T07:01:32.350Z,54.09
2023-03-25T07:03:58.882Z,54.28
2023-03-25T07:06:25.480Z,54.14
2023-03-25T07:08:52.292Z,54.25
2023-03-25T07:11:28.312Z,54.22
2023-03-25T07:13:55.449Z,53.90
2023-03-25T07:16:23.372Z,53.98
2023-03-25T07:18:50.891Z,54.17
2023-03-25T07:21:18.460Z,54.07
2023-03-25T07:23:45.028Z,53.99
2023-03-25T07:26:13.301Z,53.80
2023-03-25T07:28:40.783Z,53.89
2023-03-25T07:31:12.730Z,53.25
2023-03-25T07:33:39.649Z,53.08
2023-03-25T07:36:07.607Z,52.72
2023-03-25T07:38:34.864Z,52.66
2023-03-25T07:41:09.014Z,52.30
2023-03-25T07:43:35.620Z,52.46
2023-03-25T07:46:02.593Z,52.47
2023-03-25T07:48:29.698Z,52.26
2023-03-25T07:50:56.295Z,52.16
2023-03-25T07:53:23.131Z,52.05
2023-03-25T07:55:52.883Z,52.22
2023-03-25T07:58:19.943Z,52.03
2023-03-25T08:00:47.266Z,51.80
2023-03-25T08:03:14.664Z,52.02
2023-03-25T08:05:47.934Z,51.62
2023-03-25T08:08:15.422Z,51.94
2023-03-25T08:10:47.214Z,51.80
2023-03-25T08:13:14.244Z,51.96
2023-03-25T08:15:40.776Z,52.16
2023-03-25T08:18:07.707Z,51.95
2023-03-25T08:20:35.041Z,51.87
2023-03-25T08:23:02.964Z,51.76
2023-03-25T08:25:29.909Z,51.72
2023-03-25T08:27:56.663Z,51.40
2023-03-25T08:30:23.214Z,51.99
2023-03-25T08:32:54.866Z,51.51
2023-03-25T08:35:24.007Z,51.67
2023-03-25T08:37:51.152Z,51.61
2023-03-25T08:40:17.759Z,51.31
2023-03-25T08:42:44.311Z,51.08
2023-03-25T08:45:11.875Z,51.50
2023-03-25T08:47:39.275Z,51.65
2023-03-25T08:50:06.291Z,51.56
2023-03-25T08:52:32.775Z,51.51
2023-03-25T08:54:59.308Z,51.34
2023-03-25T08:57:26.048Z,51.53
2023-03-25T08:59:52.671Z,51.51
2023-03-25T09:02:19.340Z,51.43
2023-03-25T09:04:48.767Z,51.34
2023-03-25T09:07:15.889Z,51.45
2023-03-25T09:09:42.654Z,51.69
2023-03-25T09:12:09.715Z,51.52
2023-03-25T09:14:36.472Z,51.47
2023-03-25T09:17:03.088Z,51.55
2023-03-25T09:19:29.582Z,50.87
2023-03-25T09:21:56.250Z,51.08
2023-03-25T09:24:22.878Z,50.86
2023-03-25T09:26:49.647Z,50.60
2023-03-25T09:29:16.680Z,50.48
2023-03-25T09:31:43.306Z,50.39
2023-03-25T09:34:10.056Z,50.33
2023-03-25T09:36:37.197Z,50.62
2023-03-25T09:39:04.022Z,50.43
2023-03-25T09:41:36.509Z,50.16
2023-03-25T09:44:18.453Z,49.81
2023-03-25T09:46:45.730Z,49.91
2023-03-25T09:49:18.462Z,49.96
2023-03-25T09:51:48.339Z,49.81
2023-03-25T09:54:31.574Z,49.75
2023-03-25T09:57:04.281Z,49.68
2023-03-25T09:59:44.359Z,49.59
2023-03-25T10:02:16.623Z,49.28
2023-03-25T10:05:01.962Z,49.53
2023-03-25T10:07:31.179Z,49.67
2023-03-25T10:10:12.560Z,49.49
2023-03-25T10:13:10.342Z,49.37
2023-03-25T10:16:01.376Z,49.23
2023-03-25T10:18:40.939Z,49.18
2023-03-25T10:21:38.874Z,49.10
2023-03-25T10:24:20.614Z,48.77
2023-03-25T10:27:26.146Z,48.52
2023-03-25T10:30:17.893Z,48.04
2023-03-25T10:32:48.310Z,47.99
2023-03-25T10:35:34.103Z,48.05
2023-03-25T10:38:13.832Z,47.98
2023-03-25T10:40:44.746Z,47.71
2023-03-25T10:43:23.596Z,48.08
2023-03-25T10:45:54.670Z,47.73
2023-03-25T10:48:23.926Z,47.63
2023-03-25T10:50:53.371Z,47.55
2023-03-25T10:53:26.414Z,47.41
2023-03-25T10:56:07.657Z,47.02
2023-03-25T10:58:37.397Z,47.69
2023-03-25T11:01:12.988Z,47.02
2023-03-25T11:03:41.955Z,46.75
2023-03-25T11:06:22.562Z,46.17
2023-03-25T11:09:18.151Z,46.15
2023-03-25T11:11:45.928Z,45.80
2023-03-25T11:14:12.818Z,44.92
2023-03-25T11:17:05.783Z,45.68
2023-03-25T11:19:46.743Z,45.69
2023-03-25T11:22:19.400Z,46.08
2023-03-25T11:24:50.527Z,45.65
2023-03-25T11:27:28.434Z,45.61
2023-03-25T11:30:05.497Z,45.89
2023-03-25T11:32:39.722Z,46.16
2023-03-25T11:35:15.702Z,45.69
2023-03-25T11:37:47.645Z,45.67
2023-03-25T11:40:16.920Z,45.54
2023-03-25T11:42:49.905Z,45.40
2023-03-25T11:45:45.486Z,45.79
2023-03-25T11:48:21.420Z,45.66
2023-03-25T11:50:52.872Z,45.82
2023-03-25T11:53:21.144Z,45.81
2023-03-25T11:55:54.318Z,45.40
2023-03-25T11:58:25.888Z,45.85
2023-03-25T12:01:01.515Z,45.92
2023-03-25T12:03:31.703Z,45.81
2023-03-25T12:06:02.884Z,45.59
2023-03-25T12:08:40.762Z,46.16
2023-03-25T12:11:16.549Z,45.86
2023-03-25T12:14:01.487Z,45.76
2023-03-25T12:16:34.150Z,45.97
2023-03-25T12:19:05.719Z,45.83
2023-03-25T12:21:32.582Z,46.15
2023-03-25T12:24:14.833Z,45.71
2023-03-25T12:26:59.503Z,45.58
2023-03-25T12:29:57.073Z,45.70
2023-03-25T12:32:49.743Z,52.19
2023-03-25T12:35:22.275Z,46.92
2023-03-25T12:37:57.759Z,46.60
2023-03-25T12:40:24.168Z,46.64
2023-03-25T12:43:04.460Z,46.53
2023-03-25T12:45:37.721Z,46.00
2023-03-25T12:48:16.459Z,46.31
2023-03-25T12:50:52.159Z,46.20
2023-03-25T12:53:37.580Z,45.90
2023-03-25T12:56:31.513Z,46.43
2023-03-25T12:59:19.583Z,46.19
2023-03-25T13:01:47.908Z,46.05
2023-03-25T13:04:34.738Z,46.08
2023-03-25T13:07:10.336Z,46.14
2023-03-25T13:10:01.661Z,46.34
2023-03-25T13:12:32.670Z,46.25
2023-03-25T13:15:17.856Z,46.15
2023-03-25T13:17:57.855Z,46.35
2023-03-25T13:20:27.263Z,45.90
2023-03-25T13:23:01.794Z,45.75
2023-03-25T13:25:36.648Z,45.53
2023-03-25T13:28:07.063Z,45.52
2023-03-25T13:30:43.523Z,45.17
2023-03-25T13:33:20.778Z,45.27
2023-03-25T13:36:08.190Z,45.30
2023-03-25T13:38:41.987Z,44.73
2023-03-25T13:41:22.039Z,45.20
2023-03-25T13:44:00.476Z,45.20
2023-03-25T13:46:38.734Z,44.94
2023-03-25T13:49:07.689Z,44.93
2023-03-25T13:51:34.256Z,44.97
2023-03-25T13:54:05.625Z,45.07
2023-03-25T13:56:34.930Z,45.13
2023-03-25T13:59:26.090Z,44.59
2023-03-25T14:02:21.947Z,44.40
2023-03-25T14:05:16.507Z,44.90
2023-03-25T14:08:17.541Z,43.62
2023-03-25T14:10:53.215Z,43.94
2023-03-25T14:13:28.561Z,43.81
2023-03-25T14:16:04.348Z,43.82
2023-03-25T14:18:32.297Z,43.40
2023-03-25T14:21:15.416Z,43.96
2023-03-25T14:23:44.134Z,43.87
2023-03-25T14:26:12.008Z,43.42
2023-03-25T14:28:40.213Z,42.67
2023-03-25T14:31:21.991Z,43.26
2023-03-25T14:34:12.828Z,43.04
2023-03-25T14:36:39.377Z,42.88
2023-03-25T14:39:10.784Z,43.46
2023-03-25T14:41:55.395Z,43.48
2023-03-25T14:44:23.000Z,43.54
2023-03-25T14:47:02.132Z,43.92
2023-03-25T14:49:50.107Z,44.00
2023-03-25T14:52:21.071Z,43.78
2023-03-25T14:54:53.116Z,44.06
2023-03-25T14:57:24.982Z,44.03
2023-03-25T14:59:57.787Z,44.51
2023-03-25T15:02:29.280Z,44.72
2023-03-25T15:05:23.407Z,44.24
2023-03-25T15:08:11.095Z,44.11
2023-03-25T15:10:43.618Z,44.31
2023-03-25T15:13:25.978Z,44.72
2023-03-25T15:16:00.875Z,44.73
2023-03-25T15:18:36.861Z,44.71
2023-03-25T15:21:04.667Z,44.47
2023-03-25T15:23:35.197Z,54.00
2023-03-25T15:26:04.820Z,53.66
2023-03-25T15:29:03.508Z,47.38
2023-03-25T15:31:55.954Z,47.21
2023-03-25T15:34:28.403Z,47.08
2023-03-25T15:37:16.202Z,47.11
2023-03-25T15:40:01.472Z,46.75
2023-03-25T15:42:34.042Z,46.78
2023-03-25T15:45:18.835Z,46.37
2023-03-25T15:48:11.456Z,46.62
2023-03-25T15:50:59.357Z,46.20
2023-03-25T15:54:04.126Z,46.25
2023-03-25T15:56:37.090Z,46.22
2023-03-25T15:59:30.266Z,46.08
2023-03-25T16:01:59.831Z,45.96
2023-03-25T16:04:37.142Z,45.89
2023-03-25T16:07:07.197Z,45.91
2023-03-25T16:09:41.657Z,45.99
2023-03-25T16:12:10.427Z,45.68
2023-03-25T16:14:39.353Z,45.59
2023-03-25T16:17:07.828Z,46.14
2023-03-25T16:19:49.633Z,45.63
2023-03-25T16:22:26.795Z,45.69
2023-03-25T16:25:00.711Z,45.66
2023-03-25T16:27:33.898Z,45.79
2023-03-25T16:30:00.674Z,45.98
2023-03-25T16:32:36.628Z,46.01
2023-03-25T16:35:04.661Z,46.36
2023-03-25T16:37:33.933Z,46.39
2023-03-25T16:40:05.917Z,45.89
2023-03-25T16:42:37.277Z,46.25
2023-03-25T16:45:05.701Z,46.27
2023-03-25T16:47:33.520Z,46.39
2023-03-25T16:50:01.629Z,46.23
2023-03-25T16:52:31.991Z,46.33
2023-03-25T16:54:58.417Z,46.22
2023-03-25T16:57:37.816Z,46.46
2023-03-25T17:00:17.415Z,46.61
2023-03-25T17:02:45.954Z,46.58
2023-03-25T17:05:16.203Z,46.67
2023-03-25T17:07:43.182Z,46.21
2023-03-25T17:10:23.087Z,46.72
2023-03-25T17:12:59.336Z,46.95
2023-03-25T17:15:27.040Z,46.85
2023-03-25T17:18:01.870Z,47.20
2023-03-25T17:20:37.892Z,47.09
2023-03-25T17:23:19.598Z,47.06
2023-03-25T17:25:59.744Z,46.87
2023-03-25T17:28:28.626Z,46.81
2023-03-25T17:30:55.729Z,46.93
2023-03-25T17:33:39.122Z,46.89
2023-03-25T17:36:11.531Z,47.02
2023-03-25T17:38:44.861Z,47.25
2023-03-25T17:41:13.271Z,47.26
2023-03-25T17:43:54.232Z,47.58
2023-03-25T17:46:26.455Z,47.22
2023-03-25T17:48:55.334Z,47.48
2023-03-25T17:51:22.136Z,47.40
2023-03-25T17:53:49.321Z,47.36
2023-03-25T17:56:21.027Z,47.67
2023-03-25T17:58:47.724Z,47.14
2023-03-25T18:01:14.274Z,47.15
2023-03-25T18:03:41.271Z,47.28
2023-03-25T18:06:07.983Z,47.26
2023-03-25T18:08:34.958Z,47.57
2023-03-25T18:11:01.810Z,47.21
2023-03-25T18:13:28.371Z,47.22
2023-03-25T18:15:55.386Z,47.32
2023-03-25T18:18:25.044Z,47.13
2023-03-25T18:20:53.231Z,47.18
2023-03-25T18:23:20.037Z,47.33
2023-03-25T18:25:46.601Z,47.15
2023-03-25T18:28:14.132Z,47.21
2023-03-25T18:30:46.887Z,47.06
2023-03-25T18:33:15.532Z,46.86
2023-03-25T18:35:43.477Z,47.17
2023-03-25T18:38:20.516Z,46.85
2023-03-25T18:40:48.449Z,47.06
2023-03-25T18:43:14.927Z,46.96
2023-03-25T18:45:41.458Z,47.29
2023-03-25T18:48:11.092Z,47.21
2023-03-25T18:50:41.964Z,47.07
2023-03-25T18:53:08.456Z,46.98
2023-03-25T18:55:37.182Z,47.42
2023-03-25T18:58:04.567Z,47.20
2023-03-25T19:00:37.227Z,47.31
2023-03-25T19:03:04.477Z,47.01
2023-03-25T19:05:32.207Z,47.08
2023-03-25T19:07:58.698Z,47.14
2023-03-25T19:10:31.305Z,46.98
2023-03-25T19:12:57.872Z,47.33
2023-03-25T19:15:27.711Z,47.15
2023-03-25T19:17:58.367Z,47.10
2023-03-25T19:20:28.743Z,47.13
2023-03-25T19:22:55.747Z,47.18
2023-03-25T19:25:22.297Z,47.17
2023-03-25T19:27:48.805Z,47.25
2023-03-25T19:30:21.275Z,47.19
2023-03-25T19:32:49.889Z,47.41
2023-03-25T19:35:17.739Z,47.23
2023-03-25T19:37:50.991Z,47.14
2023-03-25T19:40:22.655Z,47.10
2023-03-25T19:42:52.608Z,47.00
2023-03-25T19:45:20.460Z,47.30
2023-03-25T19:47:47.963Z,47.04
2023-03-25T19:50:17.551Z,47.19
2023-03-25T19:52:44.381Z,47.15
2023-03-25T19:55:11.042Z,47.25
2023-03-25T19:57:38.344Z,47.11
2023-03-25T20:00:12.538Z,46.99
2023-03-25T20:02:44.016Z,47.02
2023-03-25T20:05:12.322Z,47.01
2023-03-25T20:07:40.772Z,47.29
2023-03-25T20:12:44.340Z,47.30
2023-03-25T20:15:12.852Z,47.37
2023-03-25T20:17:40.528Z,47.06
2023-03-25T20:20:09.857Z,47.30
2023-03-25T20:22:36.970Z,47.29
2023-03-25T20:25:04.724Z,47.19
2023-03-25T20:27:31.347Z,47.45
2023-03-25T20:29:57.908Z,47.29
2023-03-25T20:32:37.438Z,47.19
2023-03-25T20:35:08.138Z,46.94
2023-03-25T20:37:36.961Z,47.18
2023-03-25T20:40:05.903Z,47.12
2023-03-25T20:42:32.440Z,47.06
2023-03-25T20:44:58.946Z,47.29
2023-03-25T20:47:25.678Z,47.41
2023-03-25T20:49:52.536Z,47.32
2023-03-25T20:52:19.542Z,47.28
2023-03-25T20:54:46.131Z,47.27
2023-03-25T20:57:12.717Z,47.15
2023-03-25T20:59:39.247Z,47.10
2023-03-25T21:02:06.134Z,47.30
2023-03-25T21:04:32.972Z,47.20
2023-03-25T21:06:59.587Z,47.11
2023-03-25T21:09:26.511Z,47.16
2023-03-25T21:11:53.079Z,47.31
2023-03-25T21:14:19.695Z,46.80
2023-03-25T21:16:46.375Z,47.02
2023-03-25T21:19:13.541Z,47.27
2023-03-25T21:21:40.632Z,47.10
2023-03-25T21:24:07.612Z,47.18
2023-03-25T21:26:34.665Z,46.94
2023-03-25T21:29:01.172Z,46.81
2023-03-25T21:31:28.822Z,47.10
2023-03-25T21:33:56.782Z,47.37
2023-03-25T21:36:26.487Z,47.27
2023-03-25T21:38:58.468Z,47.18
2023-03-25T21:41:26.202Z,47.02
2023-03-25T21:43:53.364Z,47.12
2023-03-25T21:46:27.391Z,46.87
2023-03-25T21:48:55.269Z,47.02
2023-03-25T21:51:21.823Z,46.89
2023-03-25T21:53:48.647Z,47.13
2023-03-25T21:56:20.456Z,47.03
2023-03-25T21:58:48.331Z,47.11
2023-03-25T22:01:19.650Z,47.00
2023-03-25T22:03:46.483Z,47.26
2023-03-25T22:06:17.235Z,47.18
2023-03-25T22:08:44.508Z,47.24
2023-03-25T22:11:15.531Z,47.15
2023-03-25T22:13:42.947Z,47.38
2023-03-25T22:16:11.373Z,47.22
2023-03-25T22:18:38.412Z,47.25
2023-03-25T22:21:06.578Z,47.19
2023-03-25T22:23:33.076Z,47.22
2023-03-25T22:25:59.599Z,47.30
2023-03-25T22:28:26.370Z,47.43
2023-03-25T22:30:52.994Z,47.17
2023-03-25T22:33:20.096Z,47.20
2023-03-25T22:35:46.743Z,47.11
2023-03-25T22:38:13.251Z,46.99
2023-03-25T22:40:39.748Z,47.08
2023-03-25T22:43:06.294Z,47.11
2023-03-25T22:45:32.835Z,46.97
2023-03-25T22:47:59.420Z,47.17
2023-03-25T22:50:26.077Z,47.00
2023-03-25T22:52:52.606Z,47.19
2023-03-25T22:55:19.146Z,47.28
2023-03-25T22:57:45.633Z,47.05
2023-03-25T23:00:14.437Z,47.29
2023-03-25T23:02:41.567Z,47.24
2023-03-25T23:05:08.489Z,47.27
2023-03-25T23:07:35.036Z,47.26
2023-03-25T23:10:01.563Z,47.13
2023-03-25T23:12:28.148Z,47.33
2023-03-25T23:14:56.430Z,46.92
2023-03-25T23:17:24.737Z,46.95
2023-03-25T23:19:52.355Z,47.34
2023-03-25T23:22:19.806Z,47.48
2023-03-25T23:24:46.298Z,46.89
2023-03-25T23:27:13.571Z,47.24
2023-03-25T23:29:41.669Z,46.78
2023-03-25T23:32:09.443Z,47.33
2023-03-25T23:34:36.426Z,47.49
2023-03-25T23:37:04.163Z,47.15
2023-03-25T23:39:30.960Z,47.18
2023-03-25T23:41:57.632Z,46.99
2023-03-25T23:44:24.167Z,47.20
2023-03-25T23:46:53.361Z,47.28
2023-03-25T23:49:20.200Z,47.23
2023-03-25T23:51:47.345Z,47.29
2023-03-25T23:54:15.945Z,47.18
2023-03-25T23:56:43.479Z,47.10
2023-03-25T23:59:11.997Z,46.85
